Time;durP1;ratioP1;P1;durP2;ratioP2;P2;SDS_P1;SDS_P2;PMS_P1;PMS_P2;Temp;Humidity;BMP_temperature;BMP_pressure;BME280_temperature;BME280_humidity;BME280_pressure;Samples;Min_cycle;Max_cycle;Signal;HPM_P1;HPM_P2
2022/07/18 00:00:06;;;;;;;3.38;1.23;;;;;;;18.17;50.01;100719.97;5052635;28;20862;-84
2022/07/18 00:02:31;;;;;;;4.40;1.77;;;;;;;18.16;50.84;100723.81;5050590;28;20048;-77
2022/07/18 00:04:57;;;;;;;7.78;2.63;;;;;;;18.24;50.43;100723.22;5047093;28;20081;-76
2022/07/18 00:07:22;;;;;;;4.90;1.92;;;;;;;18.43;49.47;100722.41;5049319;28;20071;-81
2022/07/18 00:09:47;;;;;;;5.97;2.13;;;;;;;18.07;50.69;100721.69;5050809;28;20064;-80
2022/07/18 00:12:12;;;;;;;3.53;1.83;;;;;;;18.18;50.77;100724.38;5051298;28;20270;-91
2022/07/18 00:14:38;;;;;;;2.63;1.10;;;;;;;18.13;50.32;100724.38;5052930;28;20249;-91
2022/07/18 00:17:05;;;;;;;3.92;1.60;;;;;;;17.91;51.21;100718.28;5052919;28;20033;-85
2022/07/18 00:19:30;;;;;;;11.45;2.28;;;;;;;18.04;50.67;100715.94;5052449;28;20049;-85
2022/07/18 00:21:55;;;;;;;5.93;2.08;;;;;;;17.97;51.38;100716.28;5052607;28;20149;-84
2022/07/18 00:24:21;;;;;;;6.30;1.37;;;;;;;18.06;51.17;100717.28;5052368;28;20072;-85
2022/07/18 00:26:47;;;;;;;7.80;1.85;;;;;;;18.11;50.78;100716.41;5050061;28;20728;-85
2022/07/18 00:29:12;;;;;;;4.75;2.28;;;;;;;18.17;51.13;100715.28;5049158;28;20675;-85
2022/07/18 00:31:38;;;;;;;8.82;2.25;;;;;;;17.82;52.86;100706.22;5048948;28;20036;-91
2022/07/18 00:34:03;;;;;;;4.40;1.80;;;;;;;17.83;52.63;100700.44;5048572;28;20036;-91
2022/07/18 00:36:30;;;;;;;5.28;1.95;;;;;;;17.67;52.41;100690.66;5052470;28;20670;-77
2022/07/18 00:38:56;;;;;;;13.40;1.50;;;;;;;17.75;52.34;100695.56;5043866;28;20096;-77
2022/07/18 00:41:22;;;;;;;4.30;1.13;;;;;;;17.55;52.35;100686.38;5046738;28;20029;-79
2022/07/18 00:43:47;;;;;;;2.92;1.40;;;;;;;17.53;52.23;100696.03;5047945;28;20025;-80
2022/07/18 00:46:13;;;;;;;8.35;1.70;;;;;;;17.60;51.96;100683.56;5044913;28;20029;-79
2022/07/18 00:48:40;;;;;;;4.32;1.83;;;;;;;17.64;51.73;100674.69;5052438;28;20029;-83
2022/07/18 00:51:05;;;;;;;4.88;1.50;;;;;;;17.77;51.21;100685.06;5051742;28;20072;-83
2022/07/18 00:53:31;;;;;;;6.75;2.30;;;;;;;17.95;50.79;100679.91;5052488;28;20125;-83
2022/07/18 00:55:57;;;;;;;11.68;2.05;;;;;;;17.84;51.66;100680.00;5052424;28;20423;-83
2022/07/18 00:58:22;;;;;;;5.35;1.80;;;;;;;17.82;51.73;100678.63;5046420;28;20037;-75
2022/07/18 01:03:31;;;;;;;;;;;;;;;17.44;52.85;100677.34;5052190;28;20040;-85
2022/07/18 01:05:57;;;;;;;5.28;1.27;;;;;;;17.65;52.02;100677.19;5052564;28;19913;-85
2022/07/18 01:08:22;;;;;;;4.55;1.58;;;;;;;17.67;51.78;100679.63;5050765;28;20388;-81
2022/07/18 01:10:47;;;;;;;5.68;1.42;;;;;;;17.69;51.91;100680.16;5050900;28;20090;-81
2022/07/18 01:13:13;;;;;;;4.10;1.43;;;;;;;17.78;51.83;100680.34;5046567;28;20110;-76
2022/07/18 01:15:38;;;;;;;3.58;1.02;;;;;;;17.71;52.28;100680.69;5045597;28;20505;-76
2022/07/18 01:18:04;;;;;;;4.40;1.60;;;;;;;17.74;52.35;100683.69;5049478;28;20095;-79
2022/07/18 01:20:30;;;;;;;9.38;2.00;;;;;;;17.78;52.58;100683.94;5050134;28;20804;-81
2022/07/18 01:22:57;;;;;;;5.00;1.92;;;;;;;17.74;52.64;100685.63;5047207;28;20025;-75
2022/07/18 01:25:22;;;;;;;3.88;1.55;;;;;;;17.67;52.58;100685.16;5045556;28;20040;-75
2022/07/18 01:27:48;;;;;;;1.92;0.90;;;;;;;17.39;53.36;100689.25;5048114;28;20087;-81
2022/07/18 01:30:14;;;;;;;13.45;2.20;;;;;;;17.51;52.34;100685.31;5049552;28;20040;-81
2022/07/18 01:32:39;;;;;;;3.30;1.27;;;;;;;17.30;53.44;100690.97;5047978;28;20065;-76
2022/07/18 01:35:05;;;;;;;3.40;1.40;;;;;;;17.22;53.61;100691.59;5045386;28;20041;-76
2022/07/18 01:37:30;;;;;;;8.95;1.58;;;;;;;17.25;53.54;100694.59;5046633;28;20033;-79
2022/07/18 01:39:56;;;;;;;3.60;1.52;;;;;;;16.94;54.03;100697.56;5047358;28;20116;-79
2022/07/18 01:42:21;;;;;;;5.82;1.40;;;;;;;16.81;54.70;100685.22;5046471;28;20043;-75
2022/07/18 01:44:47;;;;;;;3.90;1.33;;;;;;;16.83;54.65;100691.28;5045041;28;20060;-76
2022/07/18 01:47:12;;;;;;;2.33;1.02;;;;;;;16.96;54.21;100689.81;5064117;28;20358;-75
2022/07/18 01:49:38;;;;;;;4.22;1.17;;;;;;;16.98;53.42;100684.03;5063961;28;20068;-75
2022/07/18 01:52:05;;;;;;;7.63;1.60;;;;;;;16.92;53.40;100684.03;5051283;28;20029;-84
2022/07/18 01:54:32;;;;;;;3.85;1.75;;;;;;;16.80;53.56;100675.34;5052368;28;20060;-84
2022/07/18 01:56:59;;;;;;;4.95;1.35;;;;;;;16.78;53.82;100675.59;5050875;28;20025;-79
2022/07/18 01:59:25;;;;;;;8.93;1.63;;;;;;;16.89;53.17;100687.38;5049306;28;20400;-79
2022/07/18 02:01:51;;;;;;;2.45;0.90;;;;;;;16.78;53.89;100683.84;5051330;28;20021;-82
2022/07/18 02:04:16;;;;;;;2.22;1.10;;;;;;;16.64;54.53;100678.16;5057040;28;20036;-83
2022/07/18 02:06:41;;;;;;;2.45;1.20;;;;;;;16.71;54.02;100675.09;5056104;28;20052;-76
2022/07/18 02:09:07;;;;;;;4.23;1.87;;;;;;;16.85;53.53;100678.03;5048888;28;20411;-76
2022/07/18 02:11:33;;;;;;;3.20;1.27;;;;;;;17.04;52.83;100678.16;5049764;28;20266;-84
2022/07/18 02:13:59;;;;;;;3.22;0.95;;;;;;;16.83;52.81;100680.25;5056180;28;20107;-83
2022/07/18 02:16:24;;;;;;;2.67;1.30;;;;;;;16.69;54.30;100672.63;5065442;28;20037;-82
2022/07/18 02:18:49;;;;;;;2.88;0.90;;;;;;;16.61;53.32;100672.41;5075197;28;20104;-83
2022/07/18 02:21:15;;;;;;;15.48;3.35;;;;;;;16.54;54.10;100683.72;5056385;28;20120;-83
2022/07/18 02:23:41;;;;;;;7.22;1.98;;;;;;;16.58;54.62;100671.03;5055059;28;20033;-83
2022/07/18 02:26:07;;;;;;;7.53;1.63;;;;;;;16.50;54.06;100677.13;5055369;28;20123;-83
2022/07/18 02:28:32;;;;;;;2.47;0.95;;;;;;;16.41;53.95;100674.97;5054942;28;20144;-81
2022/07/18 02:30:57;;;;;;;3.50;1.27;;;;;;;16.45;54.39;100672.47;5052891;28;20588;-81
2022/07/18 02:33:23;;;;;;;2.67;1.13;;;;;;;16.36;54.16;100666.72;5050182;28;20261;-77
2022/07/18 02:35:48;;;;;;;19.33;4.00;;;;;;;16.54;53.64;100668.03;5049528;28;20344;-78
2022/07/18 02:38:13;;;;;;;4.85;2.08;;;;;;;16.59;53.66;100667.19;5054452;28;20028;-90
2022/07/18 02:40:39;;;;;;;4.47;1.83;;;;;;;16.78;53.40;100663.78;5055264;28;20033;-91
2022/07/18 02:43:04;;;;;;;11.80;1.73;;;;;;;16.52;54.14;100659.22;5050282;28;20163;-76
2022/07/18 02:45:29;;;;;;;4.72;1.15;;;;;;;16.46;53.66;100660.34;5048633;28;20268;-76
2022/07/18 02:47:55;;;;;;;3.53;1.70;;;;;;;16.25;54.79;100662.41;5048734;28;20084;-75
2022/07/18 02:50:20;;;;;;;4.25;1.17;;;;;;;16.27;54.38;100660.19;5048108;28;20534;-75
2022/07/18 02:52:46;;;;;;;3.65;1.42;;;;;;;16.38;54.38;100659.03;5048704;28;20508;-77
2022/07/18 02:55:13;;;;;;;4.63;1.00;;;;;;;16.36;54.02;100664.00;5048840;28;20285;-77
2022/07/18 02:57:38;;;;;;;3.03;1.15;;;;;;;16.63;53.15;100659.19;5047619;28;20479;-75
2022/07/18 03:00:06;;;;;;;2.95;1.40;;;;;;;16.51;53.82;100667.78;5047189;28;20043;-75
2022/07/18 03:02:32;;;;;;;10.20;1.75;;;;;;;16.17;55.11;100664.59;5048691;28;20739;-77
2022/07/18 03:04:57;;;;;;;3.63;1.55;;;;;;;16.30;54.33;100662.34;5048664;28;20037;-77
2022/07/18 03:07:22;;;;;;;7.38;2.95;;;;;;;16.15;55.22;100655.81;5051087;28;20040;-85
2022/07/18 03:09:48;;;;;;;4.55;1.95;;;;;;;16.16;54.97;100662.97;5054160;28;20499;-85
2022/07/18 03:12:13;;;;;;;3.22;1.42;;;;;;;16.21;54.81;100654.69;5051923;28;20065;-77
2022/07/18 03:14:38;;;;;;;4.72;1.58;;;;;;;16.16;54.37;100660.22;5048344;28;20024;-77
2022/07/18 03:17:03;;;;;;;5.63;1.23;;;;;;;16.09;54.65;100654.19;5049134;28;20171;-79
2022/07/18 03:19:29;;;;;;;6.27;1.80;;;;;;;15.98;56.16;100650.63;5049629;28;20285;-79
2022/07/18 03:21:54;;;;;;;7.65;1.23;;;;;;;15.95;54.79;100653.91;5051000;28;20270;-85
2022/07/18 03:24:20;;;;;;;5.03;2.20;;;;;;;15.94;54.53;100650.38;5054010;28;20495;-85
2022/07/18 03:26:45;;;;;;;5.88;1.38;;;;;;;15.92;55.69;100657.25;5054204;28;20141;-90
2022/07/18 03:29:11;;;;;;;2.35;1.23;;;;;;;15.95;55.52;100651.16;5053699;28;20045;-89
2022/07/18 03:31:36;;;;;;;2.22;1.00;;;;;;;15.96;55.43;100648.16;5053955;28;20021;-81
2022/07/18 03:34:02;;;;;;;4.00;1.73;;;;;;;15.91;55.75;100650.06;5051669;28;20044;-80
2022/07/18 03:36:28;;;;;;;4.70;1.80;;;;;;;15.96;55.52;100645.41;5051979;28;20668;-76
2022/07/18 03:38:54;;;;;;;6.05;2.22;;;;;;;16.20;56.03;100642.06;5046049;28;20041;-76
2022/07/18 03:41:19;;;;;;;9.00;1.75;;;;;;;16.26;55.99;100645.59;5047543;28;20037;-76
2022/07/18 03:43:44;;;;;;;2.80;1.23;;;;;;;16.07;56.66;100639.88;5046903;28;20062;-76
2022/07/18 03:46:09;;;;;;;2.73;0.93;;;;;;;15.97;56.71;100638.78;5047660;28;20545;-76
2022/07/18 03:48:35;;;;;;;3.13;1.10;;;;;;;16.10;55.92;100631.91;5048072;28;20258;-77
2022/07/18 03:51:02;;;;;;;2.97;1.08;;;;;;;16.13;56.07;100640.72;5047205;28;20262;-77
2022/07/18 03:53:27;;;;;;;5.78;0.85;;;;;;;16.18;56.17;100641.50;5052805;28;20033;-83
2022/07/18 03:55:52;;;;;;;3.00;1.25;;;;;;;16.14;56.01;100637.66;5053347;28;20040;-83
2022/07/18 03:58:17;;;;;;;5.93;1.35;;;;;;;16.51;53.88;100640.25;5053528;28;20036;-90
2022/07/18 04:00:43;;;;;;;8.27;1.98;;;;;;;16.81;53.87;100643.91;5053044;28;20037;-90
2022/07/18 04:03:08;;;;;;;5.95;1.52;;;;;;;16.86;54.40;100646.63;5050001;28;20546;-79
2022/07/18 04:05:33;;;;;;;8.65;1.88;;;;;;;16.80;55.11;100653.31;5049000;28;20033;-78
2022/07/18 04:07:59;;;;;;;11.27;1.90;;;;;;;16.63;55.84;100651.75;5047910;28;20110;-77
2022/07/18 04:10:24;;;;;;;2.53;1.10;;;;;;;16.34;55.90;100646.94;5045975;28;20258;-77
2022/07/18 04:12:53;;;;;;;7.72;1.65;;;;;;;16.14;56.61;100648.69;5047939;28;20098;-79
2022/07/18 04:15:20;;;;;;;4.03;1.40;;;;;;;16.10;57.00;100653.91;5048265;28;20505;-79
2022/07/18 04:17:46;;;;;;;2.83;1.55;;;;;;;16.03;57.69;100652.56;5053420;28;20384;-90
2022/07/18 04:20:11;;;;;;;12.50;1.85;;;;;;;16.14;57.21;100658.84;5057438;28;20029;-89
2022/07/18 04:23:04;;;;;;;3.65;0.80;;;;;;;16.34;56.89;100646.94;5053305;28;20035;-81
2022/07/18 04:25:37;;;;;;;4.25;1.40;;;;;;;16.41;57.25;100652.97;5045739;28;20203;-81
2022/07/18 04:28:04;;;;;;;5.38;1.20;;;;;;;16.57;56.45;100644.63;5046545;28;20056;-76
2022/07/18 04:30:30;;;;;;;4.97;1.30;;;;;;;16.53;56.84;100643.53;5045619;28;20533;-76
2022/07/18 04:32:56;;;;;;;3.92;1.20;;;;;;;16.55;56.76;100646.84;5050867;28;20083;-85
2022/07/18 04:35:23;;;;;;;3.97;1.52;;;;;;;16.60;56.70;100644.03;5052976;28;20037;-85
2022/07/18 04:37:49;;;;;;;5.90;1.10;;;;;;;16.78;56.37;100655.53;5048489;28;20029;-77
2022/07/18 04:40:15;;;;;;;5.55;1.23;;;;;;;16.95;55.53;100652.34;5046251;28;20036;-75
2022/07/18 04:42:41;;;;;;;7.03;0.95;;;;;;;17.04;54.74;100647.88;5046284;28;20036;-76
2022/07/18 04:45:07;;;;;;;3.67;1.00;;;;;;;17.06;55.09;100650.38;5045655;28;20087;-75
2022/07/18 04:47:33;;;;;;;2.80;0.90;;;;;;;17.20;55.51;100650.56;5047115;28;20397;-80
2022/07/18 04:49:59;;;;;;;3.28;1.52;;;;;;;17.35;54.92;100643.28;5046396;28;20052;-79
2022/07/18 04:52:24;;;;;;;3.25;1.05;;;;;;;17.31;54.72;100640.25;5049974;28;20059;-85
2022/07/18 04:54:50;;;;;;;5.57;1.17;;;;;;;17.31;55.88;100645.75;5058070;28;20039;-85
2022/07/18 04:57:17;;;;;;;6.70;2.47;;;;;;;17.45;55.42;100639.59;5052467;28;20029;-76
2022/07/18 04:59:42;;;;;;;3.13;1.05;;;;;;;17.54;54.61;100640.59;5044923;28;20041;-75
2022/07/18 05:02:09;;;;;;;3.60;1.38;;;;;;;17.59;54.74;100637.78;5047916;28;20111;-90
2022/07/18 05:04:34;;;;;;;3.03;1.20;;;;;;;17.66;54.60;100645.72;5050584;28;20028;-90
2022/07/18 05:07:00;;;;;;;3.50;1.40;;;;;;;17.71;54.58;100639.34;5051572;28;20025;-85
2022/07/18 05:09:26;;;;;;;6.03;1.25;;;;;;;17.73;54.05;100639.88;5050442;28;20078;-85
2022/07/18 05:11:51;;;;;;;2.53;1.00;;;;;;;17.88;54.55;100640.81;5051206;28;20051;-77
2022/07/18 05:14:17;;;;;;;1.97;1.00;;;;;;;18.09;52.69;100646.91;5045518;28;20100;-77
2022/07/18 05:16:42;;;;;;;3.40;1.20;;;;;;;18.28;50.77;100644.22;5046811;28;20278;-76
2022/07/18 05:19:07;;;;;;;4.23;1.23;;;;;;;18.48;50.03;100642.31;5045159;28;20752;-76
2022/07/18 05:21:32;;;;;;;2.93;1.27;;;;;;;18.57;49.43;100645.22;5046297;28;20064;-83
2022/07/18 05:23:58;;;;;;;10.23;2.40;;;;;;;18.71;47.65;100642.56;5052114;28;20021;-84
2022/07/18 05:26:23;;;;;;;5.97;1.00;;;;;;;18.83;48.07;100641.28;5051617;28;20262;-81
2022/07/18 05:28:48;;;;;;;3.50;1.33;;;;;;;18.88;47.68;100635.66;5049304;28;20040;-81
2022/07/18 05:31:13;;;;;;;4.20;1.73;;;;;;;18.96;47.61;100634.97;5049443;28;20258;-81
2022/07/18 05:33:39;;;;;;;3.90;1.58;;;;;;;19.05;47.35;100639.81;5049328;28;20265;-81
2022/07/18 05:36:05;;;;;;;1.87;0.70;;;;;;;19.11;47.52;100624.81;5049622;28;20029;-80
2022/07/18 05:38:30;;;;;;;4.13;1.98;;;;;;;19.01;47.05;100631.31;5051476;28;20254;-85
2022/07/18 05:40:55;;;;;;;1.60;0.65;;;;;;;19.04;47.05;100624.38;5051555;28;20137;-85
2022/07/18 05:43:21;;;;;;;4.97;1.80;;;;;;;19.16;47.32;100630.25;5051137;28;20025;-84
2022/07/18 05:45:46;;;;;;;4.60;1.13;;;;;;;19.18;47.89;100624.44;5055641;28;20812;-85
2022/07/18 05:48:11;;;;;;;6.80;1.07;;;;;;;19.22;47.24;100620.75;5051119;28;20041;-75
2022/07/18 05:50:36;;;;;;;6.27;1.60;;;;;;;19.21;47.56;100618.31;5044710;28;20319;-75
2022/07/18 05:53:02;;;;;;;2.27;1.20;;;;;;;19.29;47.10;100625.06;5046106;28;20613;-79
2022/07/18 05:55:27;;;;;;;15.52;1.35;;;;;;;19.29;46.42;100625.91;5045813;28;20311;-79
2022/07/18 05:57:53;;;;;;;3.53;1.48;;;;;;;19.39;46.00;100630.44;5049455;28;20544;-85
2022/07/18 06:00:19;;;;;;;3.22;1.48;;;;;;;19.44;45.20;100612.94;5051045;28;20032;-85
2022/07/18 06:02:47;;;;;;;3.00;1.00;;;;;;;19.57;45.12;100619.59;5051333;28;20021;-90
2022/07/18 06:05:12;;;;;;;4.18;1.65;;;;;;;19.60;45.47;100613.47;5050990;28;20040;-88
2022/07/18 06:07:37;;;;;;;5.07;1.57;;;;;;;19.61;45.24;100620.63;5048756;28;20036;-79
2022/07/18 06:10:03;;;;;;;8.90;1.37;;;;;;;19.75;44.35;100622.59;5046358;28;20764;-78
2022/07/18 06:12:30;;;;;;;7.05;1.60;;;;;;;19.88;43.51;100613.47;5047484;28;20254;-81
2022/07/18 06:14:56;;;;;;;3.70;1.27;;;;;;;19.97;43.71;100607.22;5048369;28;20021;-81
2022/07/18 06:17:22;;;;;;;8.23;1.50;;;;;;;19.99;43.57;100600.28;5048191;28;20041;-76
2022/07/18 06:19:47;;;;;;;1.98;0.70;;;;;;;20.06;43.35;100592.34;5044202;28;20040;-76
2022/07/18 06:22:12;;;;;;;3.13;0.80;;;;;;;20.14;42.91;100596.38;5044967;28;20087;-76
2022/07/18 06:24:38;;;;;;;3.27;1.10;;;;;;;20.22;43.51;100592.03;5044346;28;20415;-76
2022/07/18 06:27:03;;;;;;;5.30;0.80;;;;;;;20.22;42.59;100591.25;5046633;28;20258;-84
2022/07/18 06:29:28;;;;;;;6.90;1.92;;;;;;;20.24;42.11;100591.75;5050476;28;20280;-84
2022/07/18 06:31:54;;;;;;;7.77;1.13;;;;;;;20.35;41.90;100584.03;5049690;28;20598;-75
2022/07/18 06:34:19;;;;;;;4.63;0.88;;;;;;;20.40;42.20;100590.25;5048253;28;20029;-76
2022/07/18 06:36:44;;;;;;;3.17;0.93;;;;;;;20.45;42.48;100589.34;5048394;28;20033;-76
2022/07/18 06:39:11;;;;;;;2.53;1.10;;;;;;;20.52;42.24;100597.22;5048077;28;20964;-76
2022/07/18 06:41:39;;;;;;;4.25;0.95;;;;;;;20.56;42.26;100591.88;5048925;28;20268;-85
2022/07/18 06:44:05;;;;;;;4.22;1.08;;;;;;;20.68;42.15;100594.09;5050597;28;20059;-85
2022/07/18 06:46:30;;;;;;;4.00;0.93;;;;;;;20.68;42.47;100594.91;5048939;28;20036;-85
2022/07/18 06:48:56;;;;;;;3.00;0.87;;;;;;;20.68;42.50;100588.53;5048851;28;20040;-85
2022/07/18 06:51:21;;;;;;;2.27;0.87;;;;;;;20.70;42.50;100587.09;5049343;28;20780;-76
2022/07/18 06:53:46;;;;;;;3.40;1.00;;;;;;;20.71;43.13;100596.22;5048128;28;20021;-75
2022/07/18 06:56:11;;;;;;;1.83;1.00;;;;;;;20.84;42.34;100595.34;5048276;28;20488;-75
2022/07/18 06:58:37;;;;;;;2.70;1.60;;;;;;;20.96;42.61;100591.19;5047814;28;20254;-76
2022/07/18 07:01:02;;;;;;;3.13;1.02;;;;;;;20.99;42.92;100598.91;5047330;28;20733;-75
2022/07/18 07:03:28;;;;;;;1.42;0.65;;;;;;;21.00;43.68;100595.00;5051014;28;20060;-81
2022/07/18 07:05:53;;;;;;;3.65;1.38;;;;;;;21.14;44.05;100594.09;5051961;28;20029;-80
2022/07/18 07:08:19;;;;;;;6.75;0.98;;;;;;;21.15;43.64;100584.66;5050513;28;20671;-80
2022/07/18 07:10:44;;;;;;;3.65;1.13;;;;;;;21.18;43.50;100581.22;5050650;28;20055;-80
2022/07/18 07:13:09;;;;;;;3.15;1.05;;;;;;;21.20;43.45;100585.34;5048531;28;20033;-78
2022/07/18 07:15:35;;;;;;;3.00;0.60;;;;;;;21.21;43.71;100589.72;5050866;28;20052;-78
2022/07/18 07:18:00;;;;;;;4.40;1.38;;;;;;;21.33;43.02;100594.72;5068253;28;20269;-76
2022/07/18 07:20:25;;;;;;;2.63;0.90;;;;;;;21.40;42.44;100588.69;5052864;28;20099;-76
2022/07/18 07:22:56;;;;;;;3.17;1.08;;;;;;;21.51;43.38;100586.47;5052219;28;20033;-89
2022/07/18 07:25:25;;;;;;;1.35;0.85;;;;;;;21.49;42.45;100585.16;5051079;28;20057;-89
2022/07/18 07:27:52;;;;;;;1.60;0.82;;;;;;;21.53;42.62;100578.66;5049699;28;20073;-87
2022/07/18 07:30:17;;;;;;;1.85;0.90;;;;;;;21.52;42.34;100579.78;5048544;28;20051;-86
2022/07/18 07:32:44;;;;;;;3.42;1.17;;;;;;;21.62;41.59;100580.63;5048530;28;20041;-82
2022/07/18 07:35:12;;;;;;;2.83;1.02;;;;;;;21.77;41.45;100571.88;5048007;28;20052;-81
2022/07/18 07:37:46;;;;;;;7.70;1.10;;;;;;;21.85;40.88;100572.25;5049825;28;20476;-84
2022/07/18 07:40:13;;;;;;;2.50;0.98;;;;;;;21.95;40.87;100576.69;5051552;28;20338;-85
2022/07/18 07:42:39;;;;;;;5.60;1.08;;;;;;;22.07;40.10;100573.28;5049238;28;20473;-79
2022/07/18 07:45:05;;;;;;;4.97;1.15;;;;;;;22.08;40.38;100564.63;5048206;28;20068;-78
2022/07/18 07:47:30;;;;;;;2.42;1.08;;;;;;;22.16;40.13;100574.94;5050291;28;20064;-81
2022/07/18 07:49:57;;;;;;;2.33;1.07;;;;;;;22.18;40.51;100563.50;5049827;28;20056;-81
2022/07/18 07:52:23;;;;;;;2.63;1.20;;;;;;;22.21;39.99;100570.38;5049156;28;20276;-75
2022/07/18 07:54:49;;;;;;;6.10;1.35;;;;;;;22.39;38.88;100558.09;5046889;28;20086;-75
2022/07/18 07:57:14;;;;;;;4.30;0.90;;;;;;;22.43;39.38;100561.06;5046678;28;20423;-76
2022/07/18 07:59:39;;;;;;;2.73;0.83;;;;;;;22.44;39.35;100562.69;5044599;28;20033;-75
2022/07/18 08:02:05;;;;;;;2.80;1.27;;;;;;;22.59;38.82;100569.72;5028896;28;20266;-89
2022/07/18 08:04:30;;;;;;;1.67;0.60;;;;;;;22.65;38.94;100566.78;5033623;28;20029;-89
2022/07/18 08:06:56;;;;;;;3.25;1.10;;;;;;;22.76;37.55;100554.19;5031999;28;20053;-78
2022/07/18 08:09:21;;;;;;;2.90;1.17;;;;;;;22.79;38.50;100561.88;5029279;28;20037;-79
2022/07/18 08:11:46;;;;;;;3.03;1.50;;;;;;;22.87;37.42;100560.22;5046039;28;20037;-78
2022/07/18 08:14:12;;;;;;;1.93;1.03;;;;;;;23.01;37.39;100559.22;5046696;28;20148;-78
2022/07/18 08:16:37;;;;;;;4.50;1.43;;;;;;;23.11;37.82;100556.09;5048479;28;20274;-87
2022/07/18 08:19:03;;;;;;;20.30;2.45;;;;;;;23.17;37.13;100563.09;5052707;28;20253;-87
2022/07/18 08:21:28;;;;;;;3.28;1.02;;;;;;;23.34;36.38;100553.06;5052634;28;20407;-87
2022/07/18 08:23:53;;;;;;;2.38;1.02;;;;;;;23.39;37.26;100557.66;5053137;28;20310;-87
2022/07/18 08:26:18;;;;;;;3.97;1.03;;;;;;;23.44;36.89;100552.75;5053044;28;20025;-81
2022/07/18 08:28:44;;;;;;;4.13;1.77;;;;;;;23.50;37.34;100552.53;5049140;28;20079;-81
2022/07/18 08:31:09;;;;;;;25.17;2.13;;;;;;;23.50;37.73;100547.81;5049431;28;20654;-80
2022/07/18 08:33:35;;;;;;;4.13;1.40;;;;;;;23.62;37.23;100549.88;5046508;28;20037;-76
2022/07/18 08:36:00;;;;;;;5.90;2.03;;;;;;;23.68;36.54;100544.91;5046294;28;20044;-76
2022/07/18 08:38:25;;;;;;;3.20;0.80;;;;;;;23.75;37.11;100547.19;5052422;28;20028;-88
2022/07/18 08:40:52;;;;;;;2.77;1.17;;;;;;;23.84;36.83;100544.38;5052692;28;20040;-90
2022/07/18 08:43:18;;;;;;;3.63;0.80;;;;;;;23.99;36.33;100546.53;5052079;28;20066;-88
2022/07/18 08:45:44;;;;;;;7.72;1.48;;;;;;;24.16;35.76;100536.44;5056340;28;20028;-87
2022/07/18 08:48:09;;;;;;;4.95;1.23;;;;;;;24.34;36.04;100542.72;5070626;28;20113;-82
2022/07/18 08:50:35;;;;;;;5.53;1.67;;;;;;;24.27;36.36;100539.66;5056503;28;20115;-82
2022/07/18 08:53:00;;;;;;;3.63;1.10;;;;;;;24.39;35.23;100541.69;5048466;28;20037;-80
2022/07/18 08:55:26;;;;;;;2.75;1.52;;;;;;;24.52;34.67;100550.91;5047427;28;20416;-80
2022/07/18 08:57:52;;;;;;;3.95;1.25;;;;;;;24.69;34.68;100543.56;5048043;28;20112;-80
2022/07/18 09:00:18;;;;;;;4.95;1.10;;;;;;;24.71;35.17;100535.66;5046621;28;20118;-80
2022/07/18 09:02:44;;;;;;;5.65;1.10;;;;;;;24.88;33.49;100548.59;5047962;28;20427;-80
2022/07/18 09:05:18;;;;;;;2.30;1.05;;;;;;;24.95;33.72;100545.25;5048331;28;20590;-79
2022/07/18 09:07:43;;;;;;;7.45;1.00;;;;;;;25.07;33.14;100538.94;5047692;28;20044;-78
2022/07/18 09:10:09;;;;;;;10.77;2.20;;;;;;;25.13;33.29;100545.09;5046067;28;20483;-79
2022/07/18 09:12:34;;;;;;;2.63;0.93;;;;;;;25.33;32.54;100542.53;5045944;28;20258;-76
2022/07/18 09:15:08;;;;;;;3.40;1.58;;;;;;;25.48;31.56;100550.25;5045022;28;20040;-76
2022/07/18 09:17:34;;;;;;;2.72;0.80;;;;;;;25.71;30.72;100549.00;5066764;28;20068;-81
2022/07/18 09:20:11;;;;;;;2.80;1.00;;;;;;;25.79;30.13;100536.91;5058099;28;20029;-82
2022/07/18 09:22:39;;;;;;;2.50;1.20;;;;;;;25.95;30.92;100536.16;5048405;28;20040;-79
2022/07/18 09:25:10;;;;;;;2.58;0.90;;;;;;;26.09;30.38;100535.78;5046164;28;20076;-78
2022/07/18 09:27:38;;;;;;;5.45;2.35;;;;;;;26.13;29.65;100533.91;5045457;28;20144;-76
2022/07/18 09:30:11;;;;;;;6.90;2.05;;;;;;;26.28;29.58;100540.72;5043504;28;20041;-76
2022/07/18 09:32:38;;;;;;;6.90;1.60;;;;;;;26.43;29.36;100530.00;5045672;28;20111;-77
2022/07/18 09:35:26;;;;;;;2.63;1.25;;;;;;;26.56;29.64;100528.75;5045350;28;20033;-77
2022/07/18 09:37:54;;;;;;;4.28;1.60;;;;;;;26.60;29.71;100534.47;5050053;28;20113;-88
2022/07/18 09:40:22;;;;;;;6.75;1.30;;;;;;;26.79;28.35;100535.75;5050632;28;20057;-88
2022/07/18 09:42:52;;;;;;;3.00;1.20;;;;;;;26.88;28.36;100538.41;5048855;28;20029;-81
2022/07/18 09:45:35;;;;;;;5.53;1.42;;;;;;;26.88;28.70;100527.22;5047521;28;20033;-79
2022/07/18 09:48:03;;;;;;;;;;;;;;;26.97;27.89;100529.84;5048223;28;20040;-80
2022/07/18 09:50:31;;;;;;;4.40;1.42;;;;;;;27.11;28.69;100530.25;5047334;28;19916;-81
2022/07/18 09:53:02;;;;;;;31.95;3.10;;;;;;;27.11;29.02;100524.66;5046229;28;20056;-77
2022/07/18 09:55:28;;;;;;;7.07;4.10;;;;;;;27.23;27.34;100531.34;5044907;28;20102;-77
2022/07/18 09:58:05;;;;;;;7.55;2.65;;;;;;;27.33;28.79;100527.19;5051249;28;20033;-85
2022/07/18 10:00:33;;;;;;;4.80;2.03;;;;;;;27.35;27.03;100528.44;5050327;28;20028;-85
2022/07/18 10:03:00;;;;;;;4.38;1.45;;;;;;;27.56;26.14;100521.72;5046952;28;20078;-77
2022/07/18 10:05:34;;;;;;;6.47;1.40;;;;;;;27.62;26.04;100520.25;5045039;28;20033;-76
2022/07/18 10:08:01;;;;;;;5.80;1.40;;;;;;;27.74;26.18;100515.78;5047366;28;20051;-76
2022/07/18 10:10:29;;;;;;;7.22;1.60;;;;;;;27.87;26.19;100519.25;5048092;28;20094;-75
2022/07/18 10:12:57;;;;;;;12.00;1.67;;;;;;;27.95;26.28;100526.63;5050489;28;20107;-81
2022/07/18 10:15:24;;;;;;;3.13;1.35;;;;;;;28.13;26.83;100514.22;5051297;28;20043;-80
2022/07/18 10:17:50;;;;;;;4.13;1.58;;;;;;;28.19;27.11;100513.53;5050027;28;20043;-77
2022/07/18 10:20:17;;;;;;;5.55;2.13;;;;;;;28.24;25.13;100508.81;5047115;28;20047;-77
2022/07/18 10:22:44;;;;;;;2.42;1.17;;;;;;;28.40;24.78;100511.56;5048975;28;20128;-82
2022/07/18 10:25:12;;;;;;;4.78;1.40;;;;;;;28.40;24.09;100511.56;5049518;28;20037;-81
2022/07/18 10:28:05;;;;;;;5.20;1.50;;;;;;;28.58;24.91;100505.50;5056406;28;20739;-90
2022/07/18 10:30:30;;;;;;;5.72;1.60;;;;;;;28.59;24.64;100518.34;5061326;28;20033;-91
2022/07/18 10:32:56;;;;;;;6.10;1.37;;;;;;;28.73;24.86;100524.22;5051385;28;20090;-77
2022/07/18 10:36:01;;;;;;;3.97;1.52;;;;;;;28.83;24.76;100521.97;5048303;28;20645;-76
2022/07/18 10:38:27;;;;;;;6.72;1.65;;;;;;;29.02;24.26;100516.34;5046260;28;20476;-84
2022/07/18 10:41:08;;;;;;;6.63;1.90;;;;;;;29.11;25.22;100513.28;5055128;28;20055;-83
2022/07/18 10:43:36;;;;;;;3.72;1.35;;;;;;;29.21;24.44;100511.06;5054650;28;20039;-89
2022/07/18 10:46:03;;;;;;;3.75;0.98;;;;;;;29.34;24.78;100514.44;5055178;28;20383;-90
2022/07/18 10:48:37;;;;;;;4.68;1.30;;;;;;;29.32;25.78;100512.03;5052988;28;20029;-82
2022/07/18 10:51:13;;;;;;;12.98;2.50;;;;;;;29.28;25.61;100507.53;5051425;28;20076;-82
2022/07/18 10:53:54;;;;;;;6.25;1.83;;;;;;;29.31;25.21;100513.19;5052444;28;20036;-81
2022/07/18 10:56:39;;;;;;;4.90;1.08;;;;;;;29.51;24.84;100515.13;5052748;28;20064;-84
2022/07/18 10:59:31;;;;;;;3.42;1.35;;;;;;;29.62;24.44;100512.44;5046394;28;20041;-85
2022/07/18 11:01:56;;;;;;;5.03;1.65;;;;;;;29.76;24.30;100511.91;5049882;28;20045;-77
2022/07/18 11:04:33;;;;;;;4.50;1.30;;;;;;;29.91;23.81;100516.53;5047662;28;20045;-76
2022/07/18 11:07:16;;;;;;;4.90;1.80;;;;;;;29.95;22.99;100506.13;5048638;28;20033;-80
2022/07/18 11:09:47;;;;;;;2.45;1.50;;;;;;;30.09;23.29;100509.50;5050698;28;20077;-80
2022/07/18 11:12:24;;;;;;;3.13;1.58;;;;;;;30.08;23.06;100502.28;5051867;28;20044;-85
2022/07/18 11:15:13;;;;;;;5.32;1.88;;;;;;;30.42;23.08;100496.69;5053652;28;20037;-85
2022/07/18 11:17:51;;;;;;;4.00;1.67;;;;;;;30.34;23.36;100498.59;5072415;28;20102;-90
2022/07/18 11:20:28;;;;;;;2.80;1.30;;;;;;;30.41;22.58;100501.50;5063460;28;20033;-89
2022/07/18 11:22:54;;;;;;;5.78;1.40;;;;;;;30.54;22.69;100501.22;5049705;28;20025;-77
2022/07/18 11:25:19;;;;;;;3.60;1.38;;;;;;;30.68;22.45;100492.13;5047556;28;20082;-77